sensor_id;sensor_type;location;lat;lon;timestamp;pressure;altitude;pressure_sealevel;temperature;humidity
48614;BME280;34408;51.426;5.444;2023-05-09T00:00:40;101724.38;;;17.34;65.16
48614;BME280;34408;51.426;5.444;2023-05-09T00:03:08;101719.22;;;17.33;65.18
48614;BME280;34408;51.426;5.444;2023-05-09T00:05:38;101715.69;;;17.32;65.19
48614;BME280;34408;51.426;5.444;2023-05-09T00:08:06;101722.19;;;17.31;65.07
48614;BME280;34408;51.426;5.444;2023-05-09T00:10:34;101711.56;;;17.30;65.14
48614;BME280;34408;51.426;5.444;2023-05-09T00:13:03;101714.28;;;17.30;65.18
48614;BME280;34408;51.426;5.444;2023-05-09T00:15:31;101714.28;;;17.30;65.18
48614;BME280;34408;51.426;5.444;2023-05-09T00:17:59;101700.94;;;17.28;65.07
48614;BME280;34408;51.426;5.444;2023-05-09T00:20:27;101692.78;;;17.28;65.15
48614;BME280;34408;51.426;5.444;2023-05-09T00:22:55;101700.13;;;17.28;65.16
48614;BME280;34408;51.426;5.444;2023-05-09T00:25:24;101690.31;;;17.27;65.06
48614;BME280;34408;51.426;5.444;2023-05-09T00:27:51;101692.22;;;17.26;65.03
48614;BME280;34408;51.426;5.444;2023-05-09T00:30:21;101694.94;;;17.26;65.03
48614;BME280;34408;51.426;5.444;2023-05-09T00:32:48;101696.00;;;17.25;65.11
48614;BME280;34408;51.426;5.444;2023-05-09T00:35:16;101681.59;;;17.24;65.00
48614;BME280;34408;51.426;5.444;2023-05-09T00:37:44;101672.88;;;17.22;65.17
48614;BME280;34408;51.426;5.444;2023-05-09T00:40:13;101676.41;;;17.23;65.04
48614;BME280;34408;51.426;5.444;2023-05-09T00:42:40;101673.94;;;17.21;65.05
48614;BME280;34408;51.426;5.444;2023-05-09T00:45:09;101681.25;;;17.21;65.00
48614;BME280;34408;51.426;5.444;2023-05-09T00:47:39;101686.69;;;17.21;65.01
48614;BME280;34408;51.426;5.444;2023-05-09T00:50:08;101675.81;;;17.21;65.15
48614;BME280;34408;51.426;5.444;2023-05-09T00:52:37;101678.78;;;17.19;65.18
48614;BME280;34408;51.426;5.444;2023-05-09T00:55:06;101672.53;;;17.19;65.04
48614;BME280;34408;51.426;5.444;2023-05-09T00:57:35;101664.63;;;17.17;65.07
48614;BME280;34408;51.426;5.444;2023-05-09T01:00:05;101663.56;;;17.18;65.14
48614;BME280;34408;51.426;5.444;2023-05-09T01:02:40;101656.47;;;17.17;65.13
48614;BME280;34408;51.426;5.444;2023-05-09T01:05:09;101647.75;;;17.15;65.19
48614;BME280;34408;51.426;5.444;2023-05-09T01:07:43;101645.84;;;17.16;65.02
48614;BME280;34408;51.426;5.444;2023-05-09T01:10:18;101637.13;;;17.14;65.08
48614;BME280;34408;51.426;5.444;2023-05-09T01:12:53;101633.84;;;17.12;65.07
48614;BME280;34408;51.426;5.444;2023-05-09T01:15:27;101643.06;;;17.11;65.12
48614;BME280;34408;51.426;5.444;2023-05-09T01:18:04;101638.69;;;17.10;65.17
48614;BME280;34408;51.426;5.444;2023-05-09T01:20:37;101634.34;;;17.09;65.29
48614;BME280;34408;51.426;5.444;2023-05-09T01:23:38;101629.97;;;17.08;65.24
48614;BME280;34408;51.426;5.444;2023-05-09T01:26:18;101612.03;;;17.07;65.24
48614;BME280;34408;51.426;5.444;2023-05-09T01:29:08;101607.91;;;17.04;65.36
48614;BME280;34408;51.426;5.444;2023-05-09T01:31:40;101610.63;;;17.04;65.26
48614;BME280;34408;51.426;5.444;2023-05-09T01:34:08;101619.03;;;17.03;65.57
48614;BME280;34408;51.426;5.444;2023-05-09T01:36:39;101607.34;;;17.02;65.32
48614;BME280;34408;51.426;5.444;2023-05-09T01:39:11;101604.88;;;17.01;65.43
48614;BME280;34408;51.426;5.444;2023-05-09T01:41:39;101604.88;;;17.01;65.36
48614;BME280;34408;51.426;5.444;2023-05-09T01:44:11;101587.81;;;16.88;65.34
48614;BME280;34408;51.426;5.444;2023-05-09T01:46:41;101597.22;;;16.98;65.54
48614;BME280;34408;51.426;5.444;2023-05-09T01:49:10;101595.31;;;16.98;65.38
48614;BME280;34408;51.426;5.444;2023-05-09T01:51:40;101593.66;;;16.97;65.41
48614;BME280;34408;51.426;5.444;2023-05-09T01:54:10;101597.44;;;16.96;65.39
48614;BME280;34408;51.426;5.444;2023-05-09T01:56:39;101576.03;;;16.83;65.09
48614;BME280;34408;51.426;5.444;2023-05-09T01:59:11;101588.72;;;16.94;65.32
48614;BME280;34408;51.426;5.444;2023-05-09T02:01:42;101588.97;;;16.92;65.23
48614;BME280;34408;51.426;5.444;2023-05-09T02:04:10;101583.53;;;16.92;65.30
48614;BME280;34408;51.426;5.444;2023-05-09T02:06:38;101579.19;;;16.91;65.42
48614;BME280;34408;51.426;5.444;2023-05-09T02:09:07;101581.06;;;16.91;65.25
48614;BME280;34408;51.426;5.444;2023-05-09T02:11:35;101567.41;;;16.86;65.40
48614;BME280;34408;51.426;5.444;2023-05-09T02:14:03;101574.81;;;16.90;65.30
48614;BME280;34408;51.426;5.444;2023-05-09T02:16:33;101569.63;;;16.89;65.23
48614;BME280;34408;51.426;5.444;2023-05-09T02:19:01;101570.47;;;16.89;65.24
48614;BME280;34408;51.426;5.444;2023-05-09T02:21:29;101568.16;;;16.81;65.43
48614;BME280;34408;51.426;5.444;2023-05-09T02:23:57;101589.72;;;16.88;65.39
48614;BME280;34408;51.426;5.444;2023-05-09T02:26:25;101583.47;;;16.87;65.31
48614;BME280;34408;51.426;5.444;2023-05-09T02:28:55;101588.06;;;16.87;65.10
48614;BME280;34408;51.426;5.444;2023-05-09T02:31:24;101568.63;;;16.78;65.31
48614;BME280;34408;51.426;5.444;2023-05-09T02:33:56;101581.00;;;16.86;65.27
48614;BME280;34408;51.426;5.444;2023-05-09T02:36:25;101581.22;;;16.84;65.35
48614;BME280;34408;51.426;5.444;2023-05-09T02:38:53;101583.13;;;16.84;65.31
48614;BME280;34408;51.426;5.444;2023-05-09T02:41:21;101583.13;;;16.84;65.28
48614;BME280;34408;51.426;5.444;2023-05-09T02:43:49;101582.53;;;16.82;65.17
48614;BME280;34408;51.426;5.444;2023-05-09T02:46:17;101569.22;;;16.80;65.28
48614;BME280;34408;51.426;5.444;2023-05-09T02:48:44;101569.22;;;16.80;65.39
48614;BME280;34408;51.426;5.444;2023-05-09T02:51:14;101562.97;;;16.80;65.24
48614;BME280;34408;51.426;5.444;2023-05-09T02:53:41;101564.03;;;16.79;65.32
48614;BME280;34408;51.426;5.444;2023-05-09T02:56:09;101558.84;;;16.77;65.30
48614;BME280;34408;51.426;5.444;2023-05-09T02:58:37;101558.28;;;16.75;65.37
48614;BME280;34408;51.426;5.444;2023-05-09T03:01:05;101550.13;;;16.75;65.30
48614;BME280;34408;51.426;5.444;2023-05-09T03:03:33;101551.19;;;16.74;65.26
48614;BME280;34408;51.426;5.444;2023-05-09T03:06:01;101545.19;;;16.72;65.36
48614;BME280;34408;51.426;5.444;2023-05-09T03:08:30;101541.66;;;16.72;65.39
48614;BME280;34408;51.426;5.444;2023-05-09T03:10:58;101532.94;;;16.70;65.35
48614;BME280;34408;51.426;5.444;2023-05-09T03:13:26;101538.38;;;16.70;65.67
48614;BME280;34408;51.426;5.444;2023-05-09T03:15:54;101532.34;;;16.68;65.36
48614;BME280;34408;51.426;5.444;2023-05-09T03:18:22;101536.97;;;16.67;65.35
48614;BME280;34408;51.426;5.444;2023-05-09T03:20:50;101528.00;;;16.67;65.39
48614;BME280;34408;51.426;5.444;2023-05-09T03:23:18;101526.34;;;16.66;65.43
48614;BME280;34408;51.426;5.444;2023-05-09T03:25:47;101523.84;;;16.64;65.30
48614;BME280;34408;51.426;5.444;2023-05-09T03:28:15;101533.06;;;16.63;65.21
48614;BME280;34408;51.426;5.444;2023-05-09T03:30:42;101525.97;;;16.62;65.40
48614;BME280;34408;51.426;5.444;2023-05-09T03:33:10;101528.69;;;16.62;65.35
48614;BME280;34408;51.426;5.444;2023-05-09T03:35:38;101523.19;;;16.57;65.39
48614;BME280;34408;51.426;5.444;2023-05-09T03:38:06;101527.06;;;16.61;65.33
48614;BME280;34408;51.426;5.444;2023-05-09T03:40:34;101521.03;;;16.59;65.21
48614;BME280;34408;51.426;5.444;2023-05-09T03:43:03;101516.59;;;16.53;65.30
48614;BME280;34408;51.426;5.444;2023-05-09T03:45:31;101518.56;;;16.57;65.32
48614;BME280;34408;51.426;5.444;2023-05-09T03:48:01;101520.47;;;16.57;65.37
48614;BME280;34408;51.426;5.444;2023-05-09T03:50:30;101518.81;;;16.56;65.31
48614;BME280;34408;51.426;5.444;2023-05-09T03:52:58;101523.44;;;16.55;65.32
48614;BME280;34408;51.426;5.444;2023-05-09T03:55:26;101515.53;;;16.54;65.16
48614;BME280;34408;51.426;5.444;2023-05-09T03:57:54;101513.63;;;16.54;65.23
48614;BME280;34408;51.426;5.444;2023-05-09T04:00:23;101511.16;;;16.53;65.26
48614;BME280;34408;51.426;5.444;2023-05-09T04:02:52;101499.91;;;16.44;65.20
48614;BME280;34408;51.426;5.444;2023-05-09T04:05:20;101506.00;;;16.51;65.38
48614;BME280;34408;51.426;5.444;2023-05-09T04:07:48;101500.56;;;16.51;65.24
48614;BME280;34408;51.426;5.444;2023-05-09T04:10:16;101492.66;;;16.50;65.41
48614;BME280;34408;51.426;5.444;2023-05-09T04:12:44;101488.31;;;16.49;65.33
48614;BME280;34408;51.426;5.444;2023-05-09T04:15:12;101484.53;;;16.50;65.19
48614;BME280;34408;51.426;5.444;2023-05-09T04:17:41;101484.78;;;16.48;65.32
48614;BME280;34408;51.426;5.444;2023-05-09T04:20:10;101482.31;;;16.47;65.09
48614;BME280;34408;51.426;5.444;2023-05-09T04:22:38;101476.88;;;16.47;65.39
48614;BME280;34408;51.426;5.444;2023-05-09T04:25:07;101484.44;;;16.45;65.51
48614;BME280;34408;51.426;5.444;2023-05-09T04:27:38;101481.72;;;16.45;65.32
48614;BME280;34408;51.426;5.444;2023-05-09T04:30:07;101489.03;;;16.44;65.34
48614;BME280;34408;51.426;5.444;2023-05-09T04:32:36;101482.78;;;16.44;65.30
48614;BME280;34408;51.426;5.444;2023-05-09T04:35:06;101476.53;;;16.43;65.22
48614;BME280;34408;51.426;5.444;2023-05-09T04:37:34;101483.03;;;16.42;65.25
48614;BME280;34408;51.426;5.444;2023-05-09T04:40:03;101477.88;;;16.41;65.23
48614;BME280;34408;51.426;5.444;2023-05-09T04:42:31;101477.88;;;16.41;65.37
48614;BME280;34408;51.426;5.444;2023-05-09T04:44:59;101467.00;;;16.41;65.32
48614;BME280;34408;51.426;5.444;2023-05-09T04:47:27;101465.38;;;16.40;65.30
48614;BME280;34408;51.426;5.444;2023-05-09T04:49:55;101465.38;;;16.40;65.27
48614;BME280;34408;51.426;5.444;2023-05-09T04:52:24;101455.56;;;16.39;65.07
48614;BME280;34408;51.426;5.444;2023-05-09T04:54:52;101458.53;;;16.37;65.17
48614;BME280;34408;51.426;5.444;2023-05-09T04:57:20;101450.41;;;16.37;65.33
48614;BME280;34408;51.426;5.444;2023-05-09T04:59:48;101452.28;;;16.37;65.31
48614;BME280;34408;51.426;5.444;2023-05-09T05:02:16;101447.94;;;16.36;65.33
48614;BME280;34408;51.426;5.444;2023-05-09T05:04:44;101439.78;;;16.36;65.24
48614;BME280;34408;51.426;5.444;2023-05-09T05:07:12;101440.03;;;16.34;65.30
48614;BME280;34408;51.426;5.444;2023-05-09T05:09:41;101432.72;;;16.35;65.47
48614;BME280;34408;51.426;5.444;2023-05-09T05:12:09;101431.91;;;16.34;65.29
48614;BME280;34408;51.426;5.444;2023-05-09T05:14:38;101414.38;;;16.25;65.21
48614;BME280;34408;51.426;5.444;2023-05-09T05:17:06;101419.41;;;16.33;65.36
48614;BME280;34408;51.426;5.444;2023-05-09T05:19:33;101416.69;;;16.33;65.36
48614;BME280;34408;51.426;5.444;2023-05-09T05:22:01;101420.47;;;16.32;65.39
48614;BME280;34408;51.426;5.444;2023-05-09T05:24:29;101429.44;;;16.33;65.34
48614;BME280;34408;51.426;5.444;2023-05-09T05:26:58;101413.81;;;16.40;65.24
48614;BME280;34408;51.426;5.444;2023-05-09T05:29:26;101404.53;;;16.36;65.23
48614;BME280;34408;51.426;5.444;2023-05-09T05:31:54;101403.13;;;16.33;65.68
48614;BME280;34408;51.426;5.444;2023-05-09T05:34:22;101408.56;;;16.33;65.58
48614;BME280;34408;51.426;5.444;2023-05-09T05:36:50;101403.72;;;16.35;65.89
48614;BME280;34408;51.426;5.444;2023-05-09T05:39:18;101403.94;;;16.34;65.51
48614;BME280;34408;51.426;5.444;2023-05-09T05:41:46;101403.13;;;16.33;65.33
48614;BME280;34408;51.426;5.444;2023-05-09T05:44:15;101399.59;;;16.33;65.48
48614;BME280;34408;51.426;5.444;2023-05-09T05:46:43;101394.41;;;16.31;65.39
48614;BME280;34408;51.426;5.444;2023-05-09T05:49:11;101393.59;;;16.31;65.45
48614;BME280;34408;51.426;5.444;2023-05-09T05:51:39;101398.78;;;16.32;65.45
48614;BME280;34408;51.426;5.444;2023-05-09T05:54:07;101395.25;;;16.32;65.59
48614;BME280;34408;51.426;5.444;2023-05-09T05:56:34;101386.84;;;16.33;65.60
48614;BME280;34408;51.426;5.444;2023-05-09T05:59:02;101386.03;;;16.33;65.68
48614;BME280;34408;51.426;5.444;2023-05-09T06:01:32;101384.97;;;16.34;65.50
48614;BME280;34408;51.426;5.444;2023-05-09T06:03:59;101374.13;;;16.34;65.69
48614;BME280;34408;51.426;5.444;2023-05-09T06:06:27;101379.88;;;16.37;65.61
48614;BME280;34408;51.426;5.444;2023-05-09T06:08:55;101378.22;;;16.36;65.73
48614;BME280;34408;51.426;5.444;2023-05-09T06:11:24;101360.47;;;16.28;65.58
48614;BME280;34408;51.426;5.444;2023-05-09T06:13:51;101358.81;;;16.27;65.76
48614;BME280;34408;51.426;5.444;2023-05-09T06:16:19;101371.16;;;16.35;66.11
48614;BME280;34408;51.426;5.444;2023-05-09T06:18:49;101366.31;;;16.37;66.00
48614;BME280;34408;51.426;5.444;2023-05-09T06:21:20;101352.97;;;16.36;65.84
48614;BME280;34408;51.426;5.444;2023-05-09T06:23:48;101360.88;;;16.37;65.89
48614;BME280;34408;51.426;5.444;2023-05-09T06:26:35;101361.69;;;16.38;65.90
48614;BME280;34408;51.426;5.444;2023-05-09T06:29:04;101362.53;;;16.38;65.94
48614;BME280;34408;51.426;5.444;2023-05-09T06:31:33;101363.34;;;16.39;65.88
48614;BME280;34408;51.426;5.444;2023-05-09T06:34:06;101351.41;;;16.40;65.88
48614;BME280;34408;51.426;5.444;2023-05-09T06:36:34;101354.13;;;16.40;65.94
48614;BME280;34408;51.426;5.444;2023-05-09T06:39:02;101356.28;;;16.38;65.85
48614;BME280;34408;51.426;5.444;2023-05-09T06:41:30;101357.91;;;16.39;66.04
48614;BME280;34408;51.426;5.444;2023-05-09T06:43:58;101350.34;;;16.41;65.90
48614;BME280;34408;51.426;5.444;2023-05-09T06:46:27;101348.72;;;16.40;66.07
48614;BME280;34408;51.426;5.444;2023-05-09T06:48:55;101339.50;;;16.41;65.94
48614;BME280;34408;51.426;5.444;2023-05-09T06:51:24;101336.78;;;16.41;66.07
48614;BME280;34408;51.426;5.444;2023-05-09T06:53:52;101332.44;;;16.40;66.00
48614;BME280;34408;51.426;5.444;2023-05-09T06:56:20;101335.97;;;16.40;66.01
48614;BME280;34408;51.426;5.444;2023-05-09T06:58:48;101328.91;;;16.39;65.96
48614;BME280;34408;51.426;5.444;2023-05-09T07:01:16;101329.72;;;16.40;66.04
48614;BME280;34408;51.426;5.444;2023-05-09T07:03:44;101329.72;;;16.40;66.36
48614;BME280;34408;51.426;5.444;2023-05-09T07:06:13;101329.47;;;16.41;66.12
48614;BME280;34408;51.426;5.444;2023-05-09T07:08:42;101327.00;;;16.40;66.03
48614;BME280;34408;51.426;5.444;2023-05-09T07:11:10;101326.75;;;16.41;66.11
48614;BME280;34408;51.426;5.444;2023-05-09T07:13:38;101312.53;;;16.34;66.34
48614;BME280;34408;51.426;5.444;2023-05-09T07:16:06;101317.78;;;16.41;66.07
48614;BME280;34408;51.426;5.444;2023-05-09T07:18:34;101315.09;;;16.41;66.01
48614;BME280;34408;51.426;5.444;2023-05-09T07:21:02;101316.72;;;16.42;66.02
48614;BME280;34408;51.426;5.444;2023-05-09T07:23:30;101315.91;;;16.41;66.08
48614;BME280;34408;51.426;5.444;2023-05-09T07:25:59;101308.25;;;16.38;66.23
48614;BME280;34408;51.426;5.444;2023-05-09T07:28:27;101322.97;;;16.42;66.37
48614;BME280;34408;51.426;5.444;2023-05-09T07:30:55;101309.41;;;16.42;66.12
48614;BME280;34408;51.426;5.444;2023-05-09T07:33:23;101307.75;;;16.41;66.18
48614;BME280;34408;51.426;5.444;2023-05-09T07:35:50;101308.59;;;16.42;66.21
48614;BME280;34408;51.426;5.444;2023-05-09T07:38:19;101309.41;;;16.42;66.27
48614;BME280;34408;51.426;5.444;2023-05-09T07:40:47;101311.31;;;16.42;66.47
48614;BME280;34408;51.426;5.444;2023-05-09T07:43:16;101308.59;;;16.42;66.45
48614;BME280;34408;51.426;5.444;2023-05-09T07:45:44;101306.94;;;16.41;66.65
48614;BME280;34408;51.426;5.444;2023-05-09T07:48:12;101309.66;;;16.41;66.76
48614;BME280;34408;51.426;5.444;2023-05-09T07:50:40;101300.69;;;16.40;66.54
48614;BME280;34408;51.426;5.444;2023-05-09T07:53:08;101299.06;;;16.39;66.48
48614;BME280;34408;51.426;5.444;2023-05-09T07:55:36;101295.28;;;16.40;66.50
48614;BME280;34408;51.426;5.444;2023-05-09T07:58:04;101297.16;;;16.40;66.32
48614;BME280;34408;51.426;5.444;2023-05-09T08:00:33;101285.25;;;16.41;66.45
48614;BME280;34408;51.426;5.444;2023-05-09T08:03:01;101277.09;;;16.41;66.45
48614;BME280;34408;51.426;5.444;2023-05-09T08:05:29;101277.09;;;16.41;66.53
48614;BME280;34408;51.426;5.444;2023-05-09T08:07:57;101273.56;;;16.40;66.47
48614;BME280;34408;51.426;5.444;2023-05-09T08:10:25;101261.25;;;16.33;66.61
48614;BME280;34408;51.426;5.444;2023-05-09T08:12:56;101268.97;;;16.41;66.64
48614;BME280;34408;51.426;5.444;2023-05-09T08:15:23;101260.81;;;16.41;66.45
48614;BME280;34408;51.426;5.444;2023-05-09T08:17:53;101261.41;;;16.43;66.42
48614;BME280;34408;51.426;5.444;2023-05-09T08:20:21;101251.63;;;16.42;66.72
48614;BME280;34408;51.426;5.444;2023-05-09T08:22:49;101255.16;;;16.42;66.81
48614;BME280;34408;51.426;5.444;2023-05-09T08:25:17;101248.91;;;16.42;66.69
48614;BME280;34408;51.426;5.444;2023-05-09T08:27:46;101239.94;;;16.41;66.69
48614;BME280;34408;51.426;5.444;2023-05-09T08:30:15;101241.59;;;16.42;66.55
48614;BME280;34408;51.426;5.444;2023-05-09T08:32:43;101239.69;;;16.43;66.58
48614;BME280;34408;51.426;5.444;2023-05-09T08:35:12;101234.25;;;16.43;67.16
48614;BME280;34408;51.426;5.444;2023-05-09T08:37:41;101244.94;;;16.49;66.92
48614;BME280;34408;51.426;5.444;2023-05-09T08:40:09;101223.72;;;16.46;66.78
48614;BME280;34408;51.426;5.444;2023-05-09T08:42:38;101239.44;;;16.44;66.76
48614;BME280;34408;51.426;5.444;2023-05-09T08:45:08;101234.00;;;16.44;66.83
48614;BME280;34408;51.426;5.444;2023-05-09T08:47:37;101238.63;;;16.44;67.29
48614;BME280;34408;51.426;5.444;2023-05-09T08:50:06;101235.09;;;16.43;67.31
48614;BME280;34408;51.426;5.444;2023-05-09T08:52:36;101226.94;;;16.43;67.04
48614;BME280;34408;51.426;5.444;2023-05-09T08:55:04;101212.75;;;16.36;67.35
48614;BME280;34408;51.426;5.444;2023-05-09T08:57:32;101226.13;;;16.43;67.21
48614;BME280;34408;51.426;5.444;2023-05-09T09:00:02;101219.31;;;16.40;67.15
48614;BME280;34408;51.426;5.444;2023-05-09T09:02:32;101227.59;;;16.50;67.38
48614;BME280;34408;51.426;5.444;2023-05-09T09:05:00;101228.66;;;16.49;67.29
48614;BME280;34408;51.426;5.444;2023-05-09T09:07:29;101229.97;;;16.47;67.31
48614;BME280;34408;51.426;5.444;2023-05-09T09:10:02;101220.19;;;16.46;67.40
48614;BME280;34408;51.426;5.444;2023-05-09T09:12:30;101208.97;;;16.37;67.57
48614;BME280;34408;51.426;5.444;2023-05-09T09:15:03;101218.81;;;16.43;67.35
48614;BME280;34408;51.426;5.444;2023-05-09T09:17:32;101218.56;;;16.45;67.36
48614;BME280;34408;51.426;5.444;2023-05-09T09:20:03;101216.94;;;16.66;67.29
48614;BME280;34408;51.426;5.444;2023-05-09T09:22:35;101214.34;;;16.54;67.31
48614;BME280;34408;51.426;5.444;2023-05-09T09:25:06;101215.91;;;16.50;67.36
48614;BME280;34408;51.426;5.444;2023-05-09T09:27:34;101209.09;;;16.47;67.49
48614;BME280;34408;51.426;5.444;2023-05-09T09:30:09;101199.31;;;16.46;67.60
48614;BME280;34408;51.426;5.444;2023-05-09T09:32:38;101202.03;;;16.46;67.71
48614;BME280;34408;51.426;5.444;2023-05-09T09:35:08;101202.03;;;16.46;67.84
48614;BME280;34408;51.426;5.444;2023-05-09T09:37:38;101192.00;;;16.47;67.75
48614;BME280;34408;51.426;5.444;2023-05-09T09:40:10;101190.34;;;16.46;67.89
48614;BME280;34408;51.426;5.444;2023-05-09T09:42:42;101191.19;;;16.46;67.83
48614;BME280;34408;51.426;5.444;2023-05-09T09:45:11;101192.00;;;16.47;68.00
48614;BME280;34408;51.426;5.444;2023-05-09T09:47:41;101189.28;;;16.47;68.23
48614;BME280;34408;51.426;5.444;2023-05-09T09:50:10;101186.56;;;16.47;68.04
48614;BME280;34408;51.426;5.444;2023-05-09T09:52:44;101181.16;;;16.47;68.02
48614;BME280;34408;51.426;5.444;2023-05-09T09:55:17;101187.44;;;16.52;68.41
48614;BME280;34408;51.426;5.444;2023-05-09T09:57:45;101180.94;;;16.53;68.02
48614;BME280;34408;51.426;5.444;2023-05-09T10:00:15;101177.69;;;16.51;68.21
48614;BME280;34408;51.426;5.444;2023-05-09T10:02:48;101176.03;;;16.50;68.12
48614;BME280;34408;51.426;5.444;2023-05-09T10:05:20;101159.38;;;16.42;68.41
48614;BME280;34408;51.426;5.444;2023-05-09T10:07:49;101172.25;;;16.51;68.21
48614;BME280;34408;51.426;5.444;2023-05-09T10:10:21;101176.84;;;16.51;68.33
48614;BME280;34408;51.426;5.444;2023-05-09T10:12:49;101171.69;;;16.49;68.30
48614;BME280;34408;51.426;5.444;2023-05-09T10:15:21;101168.72;;;16.51;68.52
48614;BME280;34408;51.426;5.444;2023-05-09T10:17:53;101173.31;;;16.50;68.36
48614;BME280;34408;51.426;5.444;2023-05-09T10:20:22;101168.72;;;16.51;68.55
48614;BME280;34408;51.426;5.444;2023-05-09T10:22:53;101173.31;;;16.50;68.47
48614;BME280;34408;51.426;5.444;2023-05-09T10:25:26;101155.59;;;16.43;68.30
48614;BME280;34408;51.426;5.444;2023-05-09T10:27:57;101166.00;;;16.51;68.66
48614;BME280;34408;51.426;5.444;2023-05-09T10:30:29;101163.28;;;16.51;68.75
48614;BME280;34408;51.426;5.444;2023-05-09T10:33:02;101158.94;;;16.50;68.62
48614;BME280;34408;51.426;5.444;2023-05-09T10:35:34;101143.09;;;16.42;68.60
48614;BME280;34408;51.426;5.444;2023-05-09T10:38:03;101154.59;;;16.49;68.63
48614;BME280;34408;51.426;5.444;2023-05-09T10:40:35;101146.44;;;16.49;68.68
48614;BME280;34408;51.426;5.444;2023-05-09T10:43:03;101146.44;;;16.49;68.62
48614;BME280;34408;51.426;5.444;2023-05-09T10:45:33;101135.59;;;16.49;68.54
48614;BME280;34408;51.426;5.444;2023-05-09T10:48:04;101141.84;;;16.49;68.62
48614;BME280;34408;51.426;5.444;2023-05-09T10:50:34;101136.66;;;16.48;68.72
48614;BME280;34408;51.426;5.444;2023-05-09T10:53:07;101127.19;;;16.50;68.50
48614;BME280;34408;51.426;5.444;2023-05-09T10:55:47;101128.69;;;16.63;68.24
48614;BME280;34408;51.426;5.444;2023-05-09T10:58:21;101131.03;;;16.54;68.43
48614;BME280;34408;51.426;5.444;2023-05-09T11:00:51;101122.59;;;16.51;68.57
48614;BME280;34408;51.426;5.444;2023-05-09T11:03:21;101109.16;;;16.39;68.73
48614;BME280;34408;51.426;5.444;2023-05-09T11:05:52;101120.38;;;16.48;68.76
48614;BME280;34408;51.426;5.444;2023-05-09T11:08:21;101118.75;;;16.47;68.75
48614;BME280;34408;51.426;5.444;2023-05-09T11:10:52;101112.75;;;16.45;68.91
48614;BME280;34408;51.426;5.444;2023-05-09T11:13:21;101112.50;;;16.46;68.83
48614;BME280;34408;51.426;5.444;2023-05-09T11:16:06;101110.03;;;16.45;68.75
48614;BME280;34408;51.426;5.444;2023-05-09T11:18:49;101108.41;;;16.44;68.96
48614;BME280;34408;51.426;5.444;2023-05-09T11:21:17;101108.78;;;16.52;68.49
48614;BME280;34408;51.426;5.444;2023-05-09T11:23:47;101102.22;;;16.48;68.84
48614;BME280;34408;51.426;5.444;2023-05-09T11:26:20;101100.00;;;16.45;68.86
48614;BME280;34408;51.426;5.444;2023-05-09T11:28:53;101098.38;;;16.44;68.67
48614;BME280;34408;51.426;5.444;2023-05-09T11:31:22;101094.84;;;16.44;68.69
48614;BME280;34408;51.426;5.444;2023-05-09T11:33:50;101094.84;;;16.44;68.82
48614;BME280;34408;51.426;5.444;2023-05-09T11:36:27;101094.84;;;16.44;68.90
48614;BME280;34408;51.426;5.444;2023-05-09T11:39:03;101090.47;;;16.43;68.79
48614;BME280;34408;51.426;5.444;2023-05-09T11:41:38;101092.13;;;16.44;68.86
48614;BME280;34408;51.426;5.444;2023-05-09T11:44:14;101085.06;;;16.43;68.69
48614;BME280;34408;51.426;5.444;2023-05-09T11:46:42;101074.22;;;16.43;68.81
48614;BME280;34408;51.426;5.444;2023-05-09T11:49:10;101086.94;;;16.42;68.99
48614;BME280;34408;51.426;5.444;2023-05-09T11:51:38;101069.84;;;16.42;68.89
48614;BME280;34408;51.426;5.444;2023-05-09T11:54:07;101074.47;;;16.41;69.02
48614;BME280;34408;51.426;5.444;2023-05-09T11:56:39;101076.09;;;16.42;69.04
48614;BME280;34408;51.426;5.444;2023-05-09T11:59:08;101074.78;;;16.45;68.90
48614;BME280;34408;51.426;5.444;2023-05-09T12:01:38;101068.28;;;16.46;68.86
48614;BME280;34408;51.426;5.444;2023-05-09T12:04:06;101068.53;;;16.44;68.97
48614;BME280;34408;51.426;5.444;2023-05-09T12:06:34;101060.94;;;16.46;68.98
48614;BME280;34408;51.426;5.444;2023-05-09T12:09:03;101050.00;;;16.36;68.92
48614;BME280;34408;51.426;5.444;2023-05-09T12:11:31;101061.47;;;16.43;69.00
48614;BME280;34408;51.426;5.444;2023-05-09T12:14:01;101059.81;;;16.42;69.06
48614;BME280;34408;51.426;5.444;2023-05-09T12:16:30;101060.66;;;16.43;69.04
48614;BME280;34408;51.426;5.444;2023-05-09T12:18:59;101047.53;;;16.35;68.76
48614;BME280;34408;51.426;5.444;2023-05-09T12:21:27;101057.38;;;16.41;68.92
48614;BME280;34408;51.426;5.444;2023-05-09T12:23:55;101055.72;;;16.40;69.02
48614;BME280;34408;51.426;5.444;2023-05-09T12:26:23;101051.13;;;16.40;68.84
48614;BME280;34408;51.426;5.444;2023-05-09T12:28:51;101051.38;;;16.39;68.94
48614;BME280;34408;51.426;5.444;2023-05-09T12:31:21;101048.41;;;16.40;68.94
48614;BME280;34408;51.426;5.444;2023-05-09T12:33:49;101036.75;;;16.40;69.23
48614;BME280;34408;51.426;5.444;2023-05-09T12:36:17;101039.44;;;16.40;68.88
48614;BME280;34408;51.426;5.444;2023-05-09T12:38:52;101038.63;;;16.39;68.95
48614;BME280;34408;51.426;5.444;2023-05-09T12:41:19;101030.50;;;16.39;69.05
48614;BME280;34408;51.426;5.444;2023-05-09T12:43:55;101030.28;;;16.46;68.60
48614;BME280;34408;51.426;5.444;2023-05-09T12:46:25;101022.72;;;16.48;68.81
48614;BME280;34408;51.426;5.444;2023-05-09T12:48:53;101024.31;;;16.44;68.67
48614;BME280;34408;51.426;5.444;2023-05-09T12:51:21;101021.84;;;16.42;69.09
48614;BME280;34408;51.426;5.444;2023-05-09T12:53:49;101018.31;;;16.42;70.23
48614;BME280;34408;51.426;5.444;2023-05-09T12:56:19;101019.66;;;16.39;70.33
48614;BME280;34408;51.426;5.444;2023-05-09T12:58:49;101020.72;;;16.38;70.61
48614;BME280;34408;51.426;5.444;2023-05-09T13:01:18;101013.91;;;16.36;70.85